Time;durP1;ratioP1;P1;durP2;ratioP2;P2;SDS_P1;SDS_P2;PMS_P1;PMS_P2;Temp;Humidity;BMP_temperature;BMP_pressure;BME280_temperature;BME280_humidity;BME280_pressure;Samples;Min_cycle;Max_cycle;Signal;HPM_P1;HPM_P2
2021/07/21 00:01:42;;;;;;;11.75;10.80;;;;;;;24.38;72.73;100165.81;4951276;28;102222;-63
2021/07/21 00:04:08;;;;;;;11.13;10.23;;;;;;;24.37;72.55;100166.16;4950708;28;102362;-61
2021/07/21 00:06:35;;;;;;;12.73;11.63;;;;;;;24.37;72.92;100166.97;4944846;28;102192;-63
2021/07/21 00:09:02;;;;;;;11.95;10.85;;;;;;;24.36;72.85;100154.25;4948599;28;102430;-62
2021/07/21 00:14:19;;;;;;;11.68;10.70;;;;;;;24.38;72.56;100156.66;4948917;28;102015;-61
2021/07/21 00:16:52;;;;;;;11.18;10.18;;;;;;;24.36;72.77;100159.00;4952791;28;103124;-62
2021/07/21 00:22:06;;;;;;;11.02;10.13;;;;;;;24.36;72.49;100153.44;4954937;28;103915;-63
2021/07/21 00:24:33;;;;;;;11.35;10.45;;;;;;;24.36;72.61;100165.38;4946703;28;102812;-62
2021/07/21 00:27:01;;;;;;;10.73;9.73;;;;;;;24.37;72.54;100149.47;4941240;28;103800;-62
2021/07/21 00:29:28;;;;;;;10.73;9.82;;;;;;;24.37;72.63;100149.47;4940001;28;102604;-61
2021/07/21 00:31:55;;;;;;;11.52;10.60;;;;;;;24.36;72.51;100150.66;4941796;28;103876;-63
2021/07/21 00:34:21;;;;;;;12.07;10.27;;;;;;;24.36;72.87;100143.13;4951952;28;102446;-62
2021/07/21 00:36:48;;;;;;;10.90;10.00;;;;;;;24.35;72.46;100149.06;4951069;28;102034;-62
2021/07/21 00:39:15;;;;;;;11.18;10.25;;;;;;;24.36;72.40;100153.44;4954407;28;102992;-64
2021/07/21 00:41:41;;;;;;;10.73;9.82;;;;;;;24.35;72.70;100157.41;4960671;28;103918;-63
2021/07/21 00:44:09;;;;;;;11.23;10.15;;;;;;;24.35;72.57;100157.41;4947702;28;102493;-63
2021/07/21 00:46:35;;;;;;;10.10;9.27;;;;;;;24.35;72.66;100151.84;4947729;28;102690;-62
2021/07/21 00:49:02;;;;;;;10.00;9.10;;;;;;;24.35;72.60;100151.84;4945368;28;102622;-63
2021/07/21 00:51:29;;;;;;;10.82;9.90;;;;;;;24.34;72.41;100151.06;4945487;28;104094;-62
2021/07/21 00:53:56;;;;;;;11.15;10.15;;;;;;;24.36;72.63;100145.09;4946232;28;102742;-62
2021/07/21 00:56:23;;;;;;;13.15;10.25;;;;;;;24.35;72.38;100144.31;4933735;28;102711;-62
2021/07/21 00:58:50;;;;;;;10.88;9.85;;;;;;;24.34;72.52;100139.13;4939270;28;102726;-61
2021/07/21 01:01:18;;;;;;;10.57;9.68;;;;;;;24.34;72.37;100136.34;4940105;28;104003;-61
2021/07/21 01:03:44;;;;;;;9.90;9.10;;;;;;;24.35;72.47;100135.16;4944579;28;102435;-62
2021/07/21 01:06:11;;;;;;;10.30;9.40;;;;;;;24.33;72.44;100129.97;4946283;28;102082;-62
2021/07/21 01:08:38;;;;;;;10.40;9.40;;;;;;;24.33;72.71;100134.75;4946880;28;102510;-61
2021/07/21 01:11:11;;;;;;;10.00;9.15;;;;;;;24.32;72.63;100124.81;4946422;28;102740;-62
2021/07/21 01:13:46;;;;;;;13.02;11.70;;;;;;;24.33;72.47;100126.41;4925823;28;102097;-63
2021/07/21 01:16:19;;;;;;;14.50;13.00;;;;;;;24.34;72.52;100117.69;4944036;28;102472;-62
2021/07/21 01:18:51;;;;;;;15.10;13.50;;;;;;;24.33;72.46;100116.06;4944601;28;102791;-62
2021/07/21 01:21:34;;;;;;;15.02;13.43;;;;;;;24.35;72.47;100121.28;4945084;28;103856;-62
2021/07/21 01:24:20;;;;;;;13.52;12.13;;;;;;;24.34;72.46;100122.44;4946484;28;102634;-63
2021/07/21 01:27:12;;;;;;;12.30;10.90;;;;;;;24.34;72.41;100122.44;4955931;28;102418;-63
2021/07/21 01:29:45;;;;;;;10.88;9.77;;;;;;;24.32;72.38;100119.25;4932169;28;102584;-61
2021/07/21 01:32:15;;;;;;;12.75;11.55;;;;;;;24.32;72.35;100120.03;4946190;28;103699;-63
2021/07/21 01:34:44;;;;;;;11.75;10.68;;;;;;;24.32;72.46;100114.47;4943901;28;102459;-61
2021/07/21 01:37:11;;;;;;;12.23;10.95;;;;;;;24.33;72.55;100115.28;4944295;28;102272;-63
2021/07/21 01:39:42;;;;;;;11.85;10.75;;;;;;;24.33;72.60;100116.06;4937889;28;102749;-64
2021/07/21 01:42:12;;;;;;;11.57;10.55;;;;;;;24.33;72.18;100116.06;4945338;28;104040;-62
2021/07/21 01:44:43;;;;;;;12.52;11.32;;;;;;;24.32;72.50;100108.13;4945440;28;105450;-63
2021/07/21 01:47:12;;;;;;;11.77;10.60;;;;;;;24.32;72.59;100113.69;4944715;28;103185;-61
2021/07/21 01:49:40;;;;;;;11.15;10.00;;;;;;;24.31;72.41;100112.88;4946237;28;102671;-62
2021/07/21 01:52:10;;;;;;;10.43;9.50;;;;;;;24.30;72.43;100116.81;4937685;28;103822;-63
2021/07/21 01:54:38;;;;;;;10.63;9.65;;;;;;;24.32;72.36;100120.03;4945671;28;102609;-63
2021/07/21 01:57:06;;;;;;;11.35;10.25;;;;;;;24.30;72.35;100116.81;4945296;28;102308;-61
2021/07/21 01:59:34;;;;;;;10.90;9.65;;;;;;;24.31;72.27;100112.09;4946038;28;102268;-61
2021/07/21 02:02:05;;;;;;;10.07;9.00;;;;;;;24.31;72.23;100107.31;4945145;28;103942;-61
2021/07/21 02:04:36;;;;;;;9.50;8.57;;;;;;;24.31;72.37;100109.31;4944504;28;102476;-62
2021/07/21 02:07:06;;;;;;;10.82;9.73;;;;;;;24.30;72.32;100110.47;4945938;28;102396;-63
2021/07/21 02:09:34;;;;;;;10.40;9.40;;;;;;;24.32;72.42;100108.13;4948495;28;102570;-61
2021/07/21 02:12:01;;;;;;;10.05;9.05;;;;;;;24.31;72.36;100107.31;4946823;28;103904;-62
2021/07/21 02:14:28;;;;;;;10.57;9.48;;;;;;;24.30;72.24;100105.69;4948278;28;102608;-65
2021/07/21 02:16:57;;;;;;;36.40;10.52;;;;;;;24.30;71.95;100102.13;4937658;28;102317;-64
2021/07/21 02:19:27;;;;;;;;;;;;;;;24.30;72.19;100104.91;4949853;28;102527;-62
2021/07/21 02:21:55;;;;;;;11.23;8.73;;;;;;;24.31;72.37;100107.31;4945960;28;104199;-62
2021/07/21 02:24:22;;;;;;;17.02;8.93;;;;;;;24.29;72.16;100111.66;4934650;28;102275;-62
2021/07/21 02:26:49;;;;;;;10.45;9.07;;;;;;;24.30;72.34;100105.69;4948167;28;102701;-62
2021/07/21 02:29:16;;;;;;;9.88;8.63;;;;;;;24.30;72.21;100116.81;4938958;28;102241;-62
2021/07/21 02:31:53;;;;;;;9.75;8.60;;;;;;;24.30;72.45;100110.47;4943489;28;104165;-60
2021/07/21 02:34:22;;;;;;;11.07;8.48;;;;;;;24.31;72.37;100112.09;4947508;28;102393;-60
2021/07/21 02:36:53;;;;;;;9.65;8.75;;;;;;;24.30;72.29;100110.47;4950967;28;102429;-61
2021/07/21 02:39:21;;;;;;;;;;;;;;;24.31;72.34;100117.66;4949442;28;102594;-62
2021/07/21 02:41:47;;;;;;;9.48;8.68;;;;;;;24.28;72.45;100104.50;4945940;28;104226;-61
2021/07/21 02:44:14;;;;;;;9.75;8.85;;;;;;;24.29;72.20;100112.44;4947571;28;102393;-61
2021/07/21 02:46:40;;;;;;;10.02;8.90;;;;;;;24.30;72.33;100104.91;4943323;28;102185;-61
2021/07/21 02:49:08;;;;;;;9.23;8.32;;;;;;;24.29;72.23;100108.88;4946908;28;102867;-60
2021/07/21 02:51:41;;;;;;;9.80;8.80;;;;;;;24.30;72.30;100111.25;4944899;28;104184;-60
2021/07/21 02:54:19;;;;;;;9.65;8.65;;;;;;;24.31;72.29;100117.66;4931813;28;102370;-61
2021/07/21 02:56:51;;;;;;;8.85;8.15;;;;;;;24.30;72.12;100110.47;4946273;28;102341;-60
2021/07/21 02:59:21;;;;;;;9.85;8.80;;;;;;;24.30;72.22;100118.81;4943698;28;102630;-61
2021/07/21 03:01:48;;;;;;;8.63;7.78;;;;;;;24.29;72.08;100122.78;4935300;28;102707;-63
2021/07/21 03:04:19;;;;;;;9.85;8.95;;;;;;;24.29;72.28;100114.44;4941579;28;102706;-62
2021/07/21 03:06:48;;;;;;;9.48;8.32;;;;;;;24.28;72.24;100110.84;4946035;28;102213;-61
2021/07/21 03:09:18;;;;;;;9.10;8.27;;;;;;;24.28;72.41;100112.84;4946538;28;102645;-60
2021/07/21 03:11:48;;;;;;;8.88;8.13;;;;;;;24.30;72.19;100116.03;4947662;28;103908;-62
2021/07/21 03:14:16;;;;;;;9.63;8.30;;;;;;;24.29;72.33;100120.78;4890702;28;1409371;-61
2021/07/21 03:16:47;;;;;;;8.77;7.97;;;;;;;24.30;72.24;100121.59;4941420;28;102237;-61
2021/07/21 03:19:16;;;;;;;8.85;8.15;;;;;;;24.29;72.08;100133.91;4941955;28;102769;-61
2021/07/21 03:21:44;;;;;;;8.93;8.13;;;;;;;24.29;72.16;100136.69;4944558;28;103887;-61
2021/07/21 03:24:11;;;;;;;9.40;8.48;;;;;;;24.30;72.23;100138.28;4943446;28;102150;-61
2021/07/21 03:26:39;;;;;;;9.05;8.15;;;;;;;24.29;72.20;100154.16;4943763;28;102254;-62
2021/07/21 03:29:06;;;;;;;;;;;;;;;24.31;72.40;100151.03;4949369;28;102600;-63
2021/07/21 03:31:36;;;;;;;9.05;8.07;;;;;;;24.30;72.50;100163.28;4938643;28;103882;-63
2021/07/21 03:34:05;;;;;;;8.65;7.85;;;;;;;24.28;72.48;100160.13;4947926;28;101957;-63
2021/07/21 03:36:35;;;;;;;8.90;8.13;;;;;;;24.29;72.55;100165.28;4951672;28;102329;-62
2021/07/21 03:39:04;;;;;;;8.75;7.90;;;;;;;24.28;72.61;100168.44;4952411;28;102986;-62
2021/07/21 03:41:32;;;;;;;9.05;8.25;;;;;;;24.27;72.68;100173.22;4946593;28;103834;-62
2021/07/21 03:44:01;;;;;;;8.67;7.97;;;;;;;24.28;72.69;100177.59;4942302;28;102462;-61
2021/07/21 03:46:28;;;;;;;8.20;7.50;;;;;;;24.29;72.58;100181.16;4946439;28;102102;-61
2021/07/21 03:48:57;;;;;;;8.82;8.00;;;;;;;24.29;72.46;100183.94;4948068;28;102226;-61
2021/07/21 03:51:24;;;;;;;8.70;7.78;;;;;;;24.28;72.63;100182.34;4946322;28;103919;-61
2021/07/21 03:53:51;;;;;;;9.35;8.48;;;;;;;24.29;72.70;100186.72;4946232;28;102756;-62
2021/07/21 03:56:18;;;;;;;9.18;8.30;;;;;;;24.28;72.82;100185.13;4947742;28;102581;-61
2021/07/21 03:58:44;;;;;;;8.52;7.82;;;;;;;24.27;72.64;100183.50;4947456;28;102257;-61
2021/07/21 04:01:14;;;;;;;9.00;8.20;;;;;;;24.30;72.55;100182.75;4940873;28;103880;-61
2021/07/21 04:03:41;;;;;;;8.93;8.07;;;;;;;24.28;72.95;100185.13;4945546;28;102620;-62
2021/07/21 04:06:09;;;;;;;8.60;7.63;;;;;;;24.28;72.87;100185.94;4946894;28;102473;-63
2021/07/21 04:08:38;;;;;;;8.88;8.02;;;;;;;24.29;72.73;100186.72;4941265;28;102697;-61
2021/07/21 04:11:06;;;;;;;8.70;7.97;;;;;;;24.29;72.75;100181.16;4946278;28;103408;-61
2021/07/21 04:13:34;;;;;;;8.20;7.50;;;;;;;24.31;73.05;100189.94;4937245;28;102290;-62
2021/07/21 04:16:01;;;;;;;8.00;7.40;;;;;;;24.30;72.74;100191.09;4948458;28;102751;-62
2021/07/21 04:18:31;;;;;;;8.35;7.57;;;;;;;24.31;72.91;100187.16;4947629;28;102245;-63
2021/07/21 04:20:59;;;;;;;8.30;7.60;;;;;;;24.29;72.62;100176.41;4946178;28;103262;-64
2021/07/21 04:23:26;;;;;;;8.32;7.35;;;;;;;24.30;72.74;100177.19;4947709;28;102499;-61
2021/07/21 04:25:53;;;;;;;8.18;7.50;;;;;;;24.30;72.81;100183.56;4946696;28;102665;-61
2021/07/21 04:28:20;;;;;;;8.70;7.93;;;;;;;24.32;72.73;100185.97;4944766;28;102919;-62
2021/07/21 04:30:48;;;;;;;8.35;7.65;;;;;;;24.31;72.72;100184.38;4943145;28;103911;-61
2021/07/21 04:33:14;;;;;;;8.45;7.75;;;;;;;24.31;72.95;100189.94;4946265;28;102478;-61
2021/07/21 04:35:43;;;;;;;8.38;7.60;;;;;;;24.31;72.84;100190.75;4945271;28;102488;-61
2021/07/21 04:38:10;;;;;;;9.10;8.30;;;;;;;24.32;72.76;100191.53;4932096;28;103060;-61
2021/07/21 04:40:44;;;;;;;9.40;8.43;;;;;;;24.32;72.61;100191.53;4946025;28;104080;-62
2021/07/21 04:43:11;;;;;;;8.50;7.68;;;;;;;24.29;72.61;100193.09;4946078;28;102431;-61
2021/07/21 04:45:41;;;;;;;8.13;7.53;;;;;;;24.31;72.91;100189.94;4945555;28;102350;-60
2021/07/21 04:48:12;;;;;;;8.25;7.55;;;;;;;24.30;72.51;100188.31;4946369;28;102550;-61
2021/07/21 04:50:40;;;;;;;8.98;8.18;;;;;;;24.31;72.84;100179.63;4936205;28;103879;-61
2021/07/21 04:53:09;;;;;;;8.35;7.65;;;;;;;24.32;72.75;100188.75;4938513;28;102548;-61
2021/07/21 04:55:36;;;;;;;8.60;7.85;;;;;;;24.32;72.68;100191.53;4947489;28;102254;-62
2021/07/21 04:58:02;;;;;;;9.30;8.50;;;;;;;24.32;72.75;100191.53;4932791;28;102381;-62
2021/07/21 05:00:29;;;;;;;8.82;8.10;;;;;;;24.33;72.65;100193.94;4940994;28;103903;-62
2021/07/21 05:02:56;;;;;;;9.27;8.50;;;;;;;24.33;72.77;100198.69;4944759;28;102625;-64
2021/07/21 05:05:23;;;;;;;8.70;7.90;;;;;;;24.33;72.84;100195.91;4946253;28;102799;-62
2021/07/21 05:07:49;;;;;;;8.98;8.18;;;;;;;24.34;72.80;100187.22;4946010;28;102412;-61
2021/07/21 05:10:18;;;;;;;9.05;8.35;;;;;;;24.34;72.72;100191.94;4941255;28;103903;-62
2021/07/21 05:12:44;;;;;;;8.45;7.75;;;;;;;24.33;72.82;100193.13;4944668;28;102387;-62
2021/07/21 05:15:13;;;;;;;8.15;7.45;;;;;;;24.34;72.71;100194.72;4932052;28;103073;-62
2021/07/21 05:17:40;;;;;;;8.48;7.78;;;;;;;24.33;72.75;100193.94;4946183;28;102524;-61
2021/07/21 05:20:08;;;;;;;8.55;7.85;;;;;;;24.33;72.72;100198.69;4954899;28;103844;-62
2021/07/21 05:22:35;;;;;;;8.70;7.97;;;;;;;24.33;72.82;100204.25;4960722;28;102571;-61
2021/07/21 05:25:02;;;;;;;8.77;8.05;;;;;;;24.34;72.74;100200.28;4958676;28;102068;-61
2021/07/21 05:27:30;;;;;;;8.80;8.00;;;;;;;24.33;72.67;100209.81;4959674;28;102945;-62
2021/07/21 05:29:56;;;;;;;8.63;7.85;;;;;;;24.33;72.88;100207.03;4946561;28;103922;-62
2021/07/21 05:32:23;;;;;;;8.98;8.20;;;;;;;24.31;72.99;100210.22;4949597;28;102381;-61
2021/07/21 05:34:50;;;;;;;9.15;8.45;;;;;;;24.32;72.80;100208.22;4945352;28;102447;-62
2021/07/21 05:37:16;;;;;;;8.77;8.00;;;;;;;24.31;72.84;100207.44;4951915;28;102407;-62
2021/07/21 05:39:43;;;;;;;8.85;8.05;;;;;;;24.32;72.73;100209.03;4947451;28;103932;-61
2021/07/21 05:42:09;;;;;;;9.10;8.30;;;;;;;24.32;72.98;100202.66;4953605;28;105296;-61
2021/07/21 05:44:37;;;;;;;9.02;8.23;;;;;;;24.31;72.96;100209.41;4950165;28;102145;-61
2021/07/21 05:47:04;;;;;;;9.53;8.73;;;;;;;24.32;73.00;100205.44;4948121;28;102472;-60
2021/07/21 05:49:31;;;;;;;9.07;8.38;;;;;;;24.33;72.83;100209.81;4946917;28;103623;-63
2021/07/21 05:51:57;;;;;;;9.05;8.25;;;;;;;24.33;72.94;100209.81;4947746;28;102155;-61
2021/07/21 05:54:24;;;;;;;9.40;8.23;;;;;;;24.32;72.88;100211.00;4938866;28;102042;-60
2021/07/21 05:56:50;;;;;;;9.20;8.30;;;;;;;24.33;72.87;100215.38;4949269;28;102882;-61
2021/07/21 05:59:17;;;;;;;9.82;9.00;;;;;;;24.31;72.87;100213.00;4944110;28;103927;-61
2021/07/21 06:01:46;;;;;;;9.30;8.60;;;;;;;24.32;72.82;100222.13;4944444;28;102874;-61
2021/07/21 06:04:12;;;;;;;9.63;8.73;;;;;;;24.32;72.75;100225.72;4947505;28;102377;-61
2021/07/21 06:06:38;;;;;;;9.35;8.48;;;;;;;24.32;72.89;100211.81;4938983;28;102185;-61
2021/07/21 06:09:05;;;;;;;9.63;8.80;;;;;;;24.32;73.03;100208.22;4939128;28;103817;-60
2021/07/21 06:11:32;;;;;;;9.23;8.43;;;;;;;24.31;73.02;100212.19;4939805;28;102478;-61
2021/07/21 06:14:00;;;;;;;9.13;8.32;;;;;;;24.31;72.94;100214.97;4933387;28;104536;-61
2021/07/21 06:16:27;;;;;;;9.45;8.65;;;;;;;24.32;72.94;100202.66;4920576;28;102870;-62
2021/07/21 06:18:57;;;;;;;9.48;8.63;;;;;;;24.32;72.97;100205.44;4918947;28;104055;-62
2021/07/21 06:21:24;;;;;;;9.45;8.60;;;;;;;24.33;73.04;100207.03;4917193;28;103419;-61
2021/07/21 06:23:51;;;;;;;9.60;8.70;;;;;;;24.32;73.00;100197.09;4921548;28;103646;-61
2021/07/21 06:26:18;;;;;;;10.30;9.30;;;;;;;24.32;72.73;100202.66;4922249;28;102763;-60
2021/07/21 06:28:44;;;;;;;9.30;8.45;;;;;;;24.32;72.50;100213.78;4920007;28;103837;-61
2021/07/21 06:31:11;;;;;;;9.07;8.27;;;;;;;24.34;72.72;100216.97;4919038;28;102741;-61
2021/07/21 06:33:38;;;;;;;9.98;9.07;;;;;;;24.34;72.80;100216.97;4914963;28;102095;-62
2021/07/21 06:36:06;;;;;;;9.57;8.77;;;;;;;24.34;72.90;100223.38;4921994;28;103733;-61
2021/07/21 06:38:32;;;;;;;9.30;8.40;;;;;;;24.34;73.08;100222.53;4921177;28;103895;-61
2021/07/21 06:40:59;;;;;;;10.02;8.80;;;;;;;24.34;73.18;100225.31;4921896;28;102549;-61
2021/07/21 06:43:25;;;;;;;10.13;9.13;;;;;;;24.33;73.21;100221.75;4929619;28;103474;-62
2021/07/21 06:45:52;;;;;;;9.90;8.90;;;;;;;24.34;73.02;100222.53;4922783;28;102357;-62
2021/07/21 06:48:19;;;;;;;10.43;9.52;;;;;;;24.33;72.88;100215.38;4918894;28;103683;-62
2021/07/21 06:50:46;;;;;;;10.10;9.20;;;;;;;24.33;72.78;100216.19;4925245;28;102583;-61
2021/07/21 06:53:14;;;;;;;9.95;9.05;;;;;;;24.35;72.84;100224.16;4918469;28;104124;-61
2021/07/21 06:55:40;;;;;;;10.30;9.40;;;;;;;24.33;73.10;100227.31;4918875;28;103075;-61
2021/07/21 06:58:09;;;;;;;9.85;8.85;;;;;;;24.33;72.75;100223.72;4920794;28;104089;-59
2021/07/21 07:00:36;;;;;;;12.88;10.20;;;;;;;24.31;72.91;100226.09;4928224;28;102781;-58
2021/07/21 07:03:02;;;;;;;10.23;9.30;;;;;;;24.32;72.86;100239.63;4913904;28;102256;-59
2021/07/21 07:05:29;;;;;;;9.18;8.38;;;;;;;24.34;72.80;100239.22;4908548;28;103674;-59
2021/07/21 07:07:55;;;;;;;10.00;9.10;;;;;;;24.35;73.01;100235.28;4920297;28;104275;-58
2021/07/21 07:10:24;;;;;;;9.88;8.98;;;;;;;24.34;73.11;100240.06;4918963;28;103652;-58
2021/07/21 07:12:51;;;;;;;9.63;8.82;;;;;;;24.34;72.92;100233.66;4913928;28;102581;-58
2021/07/21 07:15:18;;;;;;;9.40;8.60;;;;;;;24.34;73.02;100239.22;4940129;28;102692;-58
2021/07/21 07:17:46;;;;;;;9.32;8.43;;;;;;;24.32;73.11;100236.03;4946456;28;104872;-59
2021/07/21 07:20:13;;;;;;;9.57;8.77;;;;;;;24.34;73.06;100242.00;4946373;28;102264;-58
2021/07/21 07:22:39;;;;;;;9.68;8.77;;;;;;;24.35;73.20;100246.41;4945698;28;103303;-58
2021/07/21 07:25:09;;;;;;;9.75;8.85;;;;;;;24.34;73.18;100239.22;4944029;28;102196;-58
2021/07/21 07:27:37;;;;;;;9.15;8.35;;;;;;;24.33;73.19;100248.75;4944137;28;103902;-58
2021/07/21 07:30:05;;;;;;;9.55;8.75;;;;;;;24.33;72.81;100237.63;4948107;28;102797;-58
2021/07/21 07:32:32;;;;;;;10.10;8.80;;;;;;;24.32;73.04;100250.75;4943288;28;102468;-58
2021/07/21 07:34:59;;;;;;;9.43;8.13;;;;;;;24.34;73.12;100250.34;4947244;28;102495;-59
2021/07/21 07:37:26;;;;;;;9.52;8.63;;;;;;;24.33;72.65;100248.75;4943641;28;103882;-58
2021/07/21 07:39:52;;;;;;;10.07;8.95;;;;;;;24.33;72.98;100257.09;4942039;28;102314;-59
2021/07/21 07:42:19;;;;;;;9.65;8.77;;;;;;;24.33;73.08;100254.31;4945736;28;103112;-58
2021/07/21 07:44:46;;;;;;;9.35;8.38;;;;;;;24.34;72.87;100255.91;4946972;28;102342;-58
2021/07/21 07:47:13;;;;;;;9.40;8.50;;;;;;;24.33;72.83;100259.88;4938307;28;103946;-58
2021/07/21 07:49:40;;;;;;;9.90;9.00;;;;;;;24.34;72.84;100261.47;4947004;28;102157;-58
2021/07/21 07:52:06;;;;;;;9.85;8.68;;;;;;;24.33;73.08;100265.44;4941174;28;103579;-58
2021/07/21 07:54:33;;;;;;;9.68;8.77;;;;;;;24.32;72.96;100264.63;4942033;28;102443;-58
2021/07/21 07:56:59;;;;;;;9.70;8.80;;;;;;;24.33;73.03;100259.88;4942260;28;104176;-58
2021/07/21 07:59:26;;;;;;;9.55;8.55;;;;;;;24.33;73.05;100265.44;4936665;28;102091;-58
2021/07/21 08:01:54;;;;;;;9.35;8.55;;;;;;;24.32;72.92;100264.63;4942787;28;102528;-58
2021/07/21 08:04:20;;;;;;;9.77;8.87;;;;;;;24.32;72.97;100280.53;4948615;28;102494;-58
2021/07/21 08:06:47;;;;;;;9.38;8.57;;;;;;;24.32;73.15;100270.19;4955524;28;103916;-58
2021/07/21 08:09:14;;;;;;;9.10;8.30;;;;;;;24.31;73.01;100268.59;4946940;28;102539;-58
2021/07/21 08:11:42;;;;;;;9.10;8.30;;;;;;;24.31;72.79;100265.81;4947175;28;102667;-58
2021/07/21 08:14:09;;;;;;;;;;;;;;;24.31;72.73;100273.38;4928802;28;103114;-58
2021/07/21 08:16:35;;;;;;;8.98;8.18;;;;;;;24.32;72.96;100264.63;4907508;28;104234;-58
2021/07/21 08:19:03;;;;;;;9.60;8.75;;;;;;;24.31;72.78;100274.16;4898308;28;102462;-59
2021/07/21 08:21:30;;;;;;;8.35;7.65;;;;;;;24.32;73.04;100286.09;4903622;28;102082;-58
2021/07/21 08:23:57;;;;;;;8.65;7.75;;;;;;;24.31;72.77;100278.94;4904475;28;102604;-58
2021/07/21 08:26:23;;;;;;;9.35;8.00;;;;;;;24.32;72.92;100280.53;4906145;28;103849;-58
2021/07/21 08:28:50;;;;;;;8.38;7.57;;;;;;;24.32;72.84;100288.88;4901108;28;102639;-58
2021/07/21 08:31:16;;;;;;;8.07;7.38;;;;;;;24.31;72.94;100284.50;4900432;28;102477;-58
2021/07/21 08:33:44;;;;;;;8.98;8.10;;;;;;;24.32;73.16;100274.97;4903210;28;102629;-58
2021/07/21 08:36:12;;;;;;;9.00;8.10;;;;;;;24.31;72.83;100274.16;4900252;28;103886;-58
2021/07/21 08:38:39;;;;;;;8.18;7.40;;;;;;;24.32;72.84;100280.53;4898811;28;103047;-60
2021/07/21 08:41:06;;;;;;;8.45;7.30;;;;;;;24.30;72.89;100283.66;4905191;28;102707;-58
2021/07/21 08:43:35;;;;;;;8.80;8.00;;;;;;;24.32;72.90;100289.66;4905126;28;103202;-58
2021/07/21 08:46:01;;;;;;;;;;;;;;;24.32;72.80;100286.88;4903568;28;103946;-58
2021/07/21 08:48:28;;;;;;;8.68;7.88;;;;;;;24.32;72.77;100291.66;4903568;28;102909;-58
2021/07/21 08:50:54;;;;;;;7.90;7.20;;;;;;;24.32;72.85;100291.66;4902157;28;102616;-59
2021/07/21 08:53:22;;;;;;;8.20;7.50;;;;;;;24.33;72.68;100293.25;4903026;28;102424;-58
2021/07/21 08:55:49;;;;;;;8.15;7.45;;;;;;;24.32;72.95;100272.19;4903945;28;103998;-58
2021/07/21 08:58:18;;;;;;;8.27;7.50;;;;;;;24.33;73.23;100284.91;4902723;28;102654;-59
2021/07/21 09:00:45;;;;;;;8.13;7.30;;;;;;;24.31;73.14;100274.16;4900985;28;102238;-58
2021/07/21 09:03:11;;;;;;;8.50;7.75;;;;;;;24.32;72.74;100274.97;4902745;28;102607;-58
2021/07/21 09:05:38;;;;;;;8.18;7.43;;;;;;;24.33;72.95;100288.47;4906893;28;103846;-58
2021/07/21 09:08:05;;;;;;;8.95;7.65;;;;;;;24.33;72.72;100276.56;4904161;28;102526;-58
2021/07/21 09:10:33;;;;;;;8.00;7.20;;;;;;;24.32;72.86;100280.53;4901194;28;102268;-58
2021/07/21 09:13:03;;;;;;;8.23;7.50;;;;;;;24.33;72.92;100277.34;4903401;28;102474;-59
2021/07/21 09:15:30;;;;;;;7.80;7.07;;;;;;;24.33;72.83;100276.56;4934311;28;103944;-58
2021/07/21 09:18:07;;;;;;;7.25;6.65;;;;;;;24.33;72.64;100287.69;4948709;28;102593;-58
2021/07/21 09:20:36;;;;;;;7.13;6.53;;;;;;;24.33;72.65;100282.13;4944380;28;102636;-58
2021/07/21 09:23:03;;;;;;;7.28;6.63;;;;;;;24.33;72.65;100282.13;4945298;28;103130;-58
2021/07/21 09:25:32;;;;;;;7.45;6.75;;;;;;;24.33;72.84;100273.78;4940979;28;104219;-58
2021/07/21 09:28:02;;;;;;;8.32;7.38;;;;;;;24.33;72.82;100282.13;4946749;28;102529;-58
2021/07/21 09:30:31;;;;;;;7.80;6.97;;;;;;;24.33;72.69;100287.69;4940859;28;102335;-59
2021/07/21 09:33:01;;;;;;;8.45;7.63;;;;;;;24.33;72.71;100282.13;4944663;28;102232;-58
2021/07/21 09:35:31;;;;;;;7.57;6.78;;;;;;;24.33;72.96;100277.34;4926937;28;103878;-58
2021/07/21 09:38:03;;;;;;;7.78;7.07;;;;;;;24.33;72.81;100282.13;4939681;28;104593;-58
2021/07/21 09:40:29;;;;;;;7.15;6.55;;;;;;;24.32;72.80;100283.31;4945673;28;102645;-59
2021/07/21 09:42:58;;;;;;;7.25;6.65;;;;;;;24.32;72.85;100274.97;4942937;28;102865;-58
2021/07/21 09:45:26;;;;;;;7.72;6.93;;;;;;;24.32;72.60;100283.31;4943074;28;102549;-59
2021/07/21 09:47:54;;;;;;;7.40;6.53;;;;;;;24.33;72.73;100287.69;4939595;28;102408;-58
2021/07/21 09:50:24;;;;;;;7.72;7.03;;;;;;;24.31;72.86;100284.50;4940633;28;102508;-58
2021/07/21 09:52:55;;;;;;;7.15;6.55;;;;;;;24.32;72.88;100286.09;4943178;28;102625;-57
2021/07/21 09:55:23;;;;;;;7.18;6.47;;;;;;;24.32;72.79;100283.31;4939380;28;104025;-58
2021/07/21 09:58:02;;;;;;;6.60;5.93;;;;;;;24.32;72.67;100286.09;4943489;28;102327;-58
2021/07/21 10:00:35;;;;;;;7.30;6.65;;;;;;;24.31;72.71;100284.50;4932413;28;102399;-58
2021/07/21 10:03:12;;;;;;;6.97;6.28;;;;;;;24.32;72.90;100281.31;4938579;28;102721;-59
2021/07/21 10:05:59;;;;;;;7.05;6.43;;;;;;;24.32;72.69;100291.66;4951142;28;103936;-58
2021/07/21 10:08:31;;;;;;;6.72;6.22;;;;;;;24.32;72.65;100280.53;4945885;28;102456;-58
2021/07/21 10:11:19;;;;;;;6.45;5.82;;;;;;;24.32;73.06;100272.19;4940567;28;103482;-58
2021/07/21 10:13:46;;;;;;;6.95;6.15;;;;;;;24.31;72.80;100270.59;4941969;28;102290;-58
2021/07/21 10:16:40;;;;;;;6.75;6.15;;;;;;;24.32;72.98;100269.41;4942946;28;103856;-58
2021/07/21 10:19:11;;;;;;;6.50;6.00;;;;;;;24.31;72.72;100263.03;4941707;28;102224;-58
2021/07/21 10:21:41;;;;;;;7.20;6.60;;;;;;;24.32;72.93;100269.41;4943878;28;102720;-58
2021/07/21 10:24:09;;;;;;;7.28;6.32;;;;;;;24.32;72.80;100270.19;4946911;28;102803;-59
2021/07/21 10:26:36;;;;;;;6.65;6.05;;;;;;;24.32;72.57;100269.41;4943196;28;103718;-62
2021/07/21 10:29:04;;;;;;;6.47;5.90;;;;;;;24.32;72.70;100263.84;4947429;28;102701;-58
2021/07/21 10:31:31;;;;;;;6.07;5.57;;;;;;;24.32;72.54;100264.63;4943200;28;102063;-58
2021/07/21 10:34:00;;;;;;;7.10;5.68;;;;;;;24.32;72.79;100266.63;4961884;28;102241;-58
2021/07/21 10:36:31;;;;;;;7.30;6.00;;;;;;;24.33;72.62;100265.44;4957527;28;104192;-58
2021/07/21 10:38:59;;;;;;;6.20;5.70;;;;;;;24.33;72.67;100259.88;4954037;28;102046;-58
2021/07/21 10:41:27;;;;;;;;;;;;;;;24.33;72.62;100271.00;4960258;28;102682;-58
2021/07/21 10:43:57;;;;;;;6.07;5.53;;;;;;;24.33;72.64;100271.00;4946413;28;102941;-58
2021/07/21 10:46:37;;;;;;;5.90;5.40;;;;;;;24.35;72.86;100268.66;4945313;28;103714;-59
2021/07/21 10:49:22;;;;;;;5.90;5.40;;;;;;;24.33;72.73;100268.22;4945747;28;103444;-58
2021/07/21 11:00:18;;;;;;;6.55;5.72;;;;;;;24.33;72.52;100265.44;4946002;28;102507;-58
2021/07/21 11:02:49;;;;;;;5.60;5.10;;;;;;;24.33;72.82;100268.22;4945400;28;102718;-58
2021/07/21 11:05:34;;;;;;;5.80;5.30;;;;;;;24.33;72.65;100266.22;4930563;28;102373;-58
2021/07/21 11:08:02;;;;;;;5.70;5.20;;;;;;;24.33;72.71;100265.44;4945037;28;103950;-59
2021/07/21 11:10:31;;;;;;;6.40;5.80;;;;;;;24.32;72.87;100263.84;4945588;28;103267;-58
2021/07/21 11:12:59;;;;;;;5.80;5.30;;;;;;;24.32;72.84;100259.06;4944786;28;103516;-57
2021/07/21 11:15:34;;;;;;;5.95;5.38;;;;;;;24.34;72.83;100264.25;4946649;28;102906;-58
2021/07/21 11:18:40;;;;;;;6.03;5.25;;;;;;;24.33;72.53;100265.44;4943269;28;104001;-58
2021/07/21 11:21:13;;;;;;;5.95;5.13;;;;;;;24.33;72.71;100259.88;4943279;28;102387;-58
2021/07/21 11:23:55;;;;;;;5.90;5.40;;;;;;;24.32;72.82;100259.06;4943634;28;103419;-58
2021/07/21 11:26:43;;;;;;;5.90;5.40;;;;;;;24.31;72.95;100257.50;4943365;28;103019;-58
2021/07/21 11:29:44;;;;;;;5.97;5.32;;;;;;;24.33;73.07;100259.88;4943137;28;103070;-58
2021/07/21 11:32:13;;;;;;;6.18;5.40;;;;;;;24.32;72.50;100255.50;4943783;28;102457;-58
2021/07/21 11:34:45;;;;;;;5.82;4.78;;;;;;;24.32;72.83;100255.50;4940216;28;102274;-59
2021/07/21 11:37:21;;;;;;;5.47;4.90;;;;;;;24.32;72.90;100252.72;4943118;28;102544;-58
2021/07/21 11:39:50;;;;;;;5.72;5.22;;;;;;;24.32;72.84;100253.53;4943671;28;103744;-58